sensor_id;sensor_type;location;lat;lon;timestamp;pressure;altitude;pressure_sealevel;temperature;humidity
46111;BME280;31849;55.992;37.252;2023-03-14T00:03:51;98705.59;;;-4.15;59.05
46111;BME280;31849;55.992;37.252;2023-03-14T00:08:56;98689.47;;;-3.96;58.38
46111;BME280;31849;55.992;37.252;2023-03-14T00:14:19;98682.19;;;-3.88;58.33
46111;BME280;31849;55.992;37.252;2023-03-14T00:19:41;98668.53;;;-3.71;58.59
46111;BME280;31849;55.992;37.252;2023-03-14T00:25:07;98651.09;;;-3.61;58.52
46111;BME280;31849;55.992;37.252;2023-03-14T00:30:32;98652.41;;;-3.50;58.30
46111;BME280;31849;55.992;37.252;2023-03-14T00:35:55;98647.19;;;-3.32;58.26
46111;BME280;31849;55.992;37.252;2023-03-14T00:41:21;98651.53;;;-3.29;59.19
46111;BME280;31849;55.992;37.252;2023-03-14T00:46:44;98637.56;;;-3.18;58.79
46111;BME280;31849;55.992;37.252;2023-03-14T00:52:06;98623.38;;;-3.13;59.07
46111;BME280;31849;55.992;37.252;2023-03-14T00:57:10;98626.34;;;-3.01;59.75
46111;BME280;31849;55.992;37.252;2023-03-14T01:02:14;98614.56;;;-2.98;59.63
46111;BME280;31849;55.992;37.252;2023-03-14T01:07:17;98614.22;;;-2.85;59.47
46111;BME280;31849;55.992;37.252;2023-03-14T01:12:22;98601.09;;;-2.96;61.74
46111;BME280;31849;55.992;37.252;2023-03-14T01:17:26;98571.50;;;-2.94;61.68
46111;BME280;31849;55.992;37.252;2023-03-14T01:22:29;98540.56;;;-3.05;63.46
46111;BME280;31849;55.992;37.252;2023-03-14T01:27:34;98535.97;;;-3.15;65.02
46111;BME280;31849;55.992;37.252;2023-03-14T01:32:38;98537.50;;;-2.96;64.69
46111;BME280;31849;55.992;37.252;2023-03-14T01:37:42;98518.59;;;-2.80;64.51
46111;BME280;31849;55.992;37.252;2023-03-14T01:42:54;98526.59;;;-2.93;67.06
46111;BME280;31849;55.992;37.252;2023-03-14T01:47:58;98527.72;;;-2.61;65.17
46111;BME280;31849;55.992;37.252;2023-03-14T01:53:01;98495.41;;;-2.63;66.04
46111;BME280;31849;55.992;37.252;2023-03-14T01:58:06;98499.19;;;-2.76;67.55
46111;BME280;31849;55.992;37.252;2023-03-14T02:03:15;98490.97;;;-2.69;67.60
46111;BME280;31849;55.992;37.252;2023-03-14T02:08:21;98470.75;;;-2.65;67.31
46111;BME280;31849;55.992;37.252;2023-03-14T02:13:28;98459.47;;;-2.73;68.10
46111;BME280;31849;55.992;37.252;2023-03-14T02:18:31;98444.50;;;-2.63;67.89
46111;BME280;31849;55.992;37.252;2023-03-14T02:23:39;98451.72;;;-2.76;70.30
46111;BME280;31849;55.992;37.252;2023-03-14T02:28:47;98434.63;;;-2.54;69.02
46111;BME280;31849;55.992;37.252;2023-03-14T02:33:52;98429.69;;;-2.50;68.54
46111;BME280;31849;55.992;37.252;2023-03-14T02:39:03;98424.13;;;-2.38;69.31
46111;BME280;31849;55.992;37.252;2023-03-14T02:44:09;98421.91;;;-2.54;70.00
46111;BME280;31849;55.992;37.252;2023-03-14T02:49:13;98417.00;;;-2.48;72.46
46111;BME280;31849;55.992;37.252;2023-03-14T02:54:19;98411.34;;;-2.39;71.20
46111;BME280;31849;55.992;37.252;2023-03-14T02:59:25;98413.66;;;-2.20;70.36
46111;BME280;31849;55.992;37.252;2023-03-14T03:04:28;98408.19;;;-2.05;70.35
46111;BME280;31849;55.992;37.252;2023-03-14T03:09:32;98389.97;;;-1.90;70.61
46111;BME280;31849;55.992;37.252;2023-03-14T03:14:37;98394.75;;;-1.99;71.43
46111;BME280;31849;55.992;37.252;2023-03-14T03:19:40;98365.22;;;-1.94;71.41
46111;BME280;31849;55.992;37.252;2023-03-14T03:24:44;98349.41;;;-1.82;71.87
46111;BME280;31849;55.992;37.252;2023-03-14T03:29:48;98342.97;;;-1.69;70.73
46111;BME280;31849;55.992;37.252;2023-03-14T03:34:52;98334.41;;;-1.71;71.82
46111;BME280;31849;55.992;37.252;2023-03-14T03:39:55;98319.81;;;-1.47;70.66
46111;BME280;31849;55.992;37.252;2023-03-14T03:45:01;98311.41;;;-1.43;70.88
46111;BME280;31849;55.992;37.252;2023-03-14T03:50:05;98299.03;;;-1.29;70.75
46111;BME280;31849;55.992;37.252;2023-03-14T03:55:09;98306.69;;;-1.29;71.83
46111;BME280;31849;55.992;37.252;2023-03-14T04:00:15;98305.22;;;-1.19;71.47
46111;BME280;31849;55.992;37.252;2023-03-14T04:05:19;98293.47;;;-1.14;71.35
46111;BME280;31849;55.992;37.252;2023-03-14T04:10:22;98296.09;;;-1.11;72.14
46111;BME280;31849;55.992;37.252;2023-03-14T04:15:27;98294.63;;;-1.01;71.81
46111;BME280;31849;55.992;37.252;2023-03-14T04:20:30;98285.88;;;-0.76;70.67
46111;BME280;31849;55.992;37.252;2023-03-14T04:25:37;98278.22;;;-0.76;71.12
46111;BME280;31849;55.992;37.252;2023-03-14T04:30:42;98245.09;;;-0.74;71.70
46111;BME280;31849;55.992;37.252;2023-03-14T04:35:45;98241.50;;;-0.81;73.41
46111;BME280;31849;55.992;37.252;2023-03-14T04:40:48;98219.63;;;-0.71;72.57
46111;BME280;31849;55.992;37.252;2023-03-14T04:45:55;98220.25;;;-0.42;71.62
46111;BME280;31849;55.992;37.252;2023-03-14T04:50:58;98202.59;;;-0.31;71.53
46111;BME280;31849;55.992;37.252;2023-03-14T04:56:02;98200.31;;;-0.17;71.07
46111;BME280;31849;55.992;37.252;2023-03-14T05:01:07;98205.50;;;-0.14;71.67
46111;BME280;31849;55.992;37.252;2023-03-14T05:06:11;98202.31;;;-0.02;71.68
46111;BME280;31849;55.992;37.252;2023-03-14T05:11:14;98182.28;;;0.20;74.58
46111;BME280;31849;55.992;37.252;2023-03-14T05:16:19;98185.63;;;0.17;71.97
46111;BME280;31849;55.992;37.252;2023-03-14T05:21:23;98179.13;;;0.34;71.00
46111;BME280;31849;55.992;37.252;2023-03-14T05:26:27;98215.72;;;0.30;71.96
46111;BME280;31849;55.992;37.252;2023-03-14T05:31:32;98210.16;;;0.55;71.49
46111;BME280;31849;55.992;37.252;2023-03-14T05:36:35;98206.22;;;0.74;70.17
46111;BME280;31849;55.992;37.252;2023-03-14T05:41:39;98218.34;;;0.84;70.62
46111;BME280;31849;55.992;37.252;2023-03-14T05:46:44;98211.09;;;1.12;70.11
46111;BME280;31849;55.992;37.252;2023-03-14T05:51:47;98210.66;;;1.40;69.79
46111;BME280;31849;55.992;37.252;2023-03-14T05:56:51;98212.56;;;1.55;68.78
46111;BME280;31849;55.992;37.252;2023-03-14T06:01:56;98210.72;;;1.45;68.97
46111;BME280;31849;55.992;37.252;2023-03-14T06:06:59;98230.50;;;1.55;69.13
46111;BME280;31849;55.992;37.252;2023-03-14T06:12:03;98194.69;;;1.62;69.48
46111;BME280;31849;55.992;37.252;2023-03-14T06:17:08;98217.34;;;1.95;68.85
46111;BME280;31849;55.992;37.252;2023-03-14T06:22:12;98192.63;;;2.02;68.09
46111;BME280;31849;55.992;37.252;2023-03-14T06:27:16;98198.75;;;2.15;68.41
46111;BME280;31849;55.992;37.252;2023-03-14T06:32:21;98184.31;;;2.23;67.69
46111;BME280;31849;55.992;37.252;2023-03-14T06:37:25;98199.91;;;2.43;67.69
46111;BME280;31849;55.992;37.252;2023-03-14T06:42:28;98192.31;;;2.57;67.05
46111;BME280;31849;55.992;37.252;2023-03-14T06:47:33;98198.69;;;3.02;66.49
46111;BME280;31849;55.992;37.252;2023-03-14T06:52:36;98188.31;;;2.87;66.77
46111;BME280;31849;55.992;37.252;2023-03-14T06:57:43;98182.47;;;3.08;66.36
46111;BME280;31849;55.992;37.252;2023-03-14T07:02:48;98185.19;;;3.31;66.08
46111;BME280;31849;55.992;37.252;2023-03-14T07:07:51;98176.59;;;3.24;64.58
46111;BME280;31849;55.992;37.252;2023-03-14T07:12:55;98176.72;;;3.47;65.38
46111;BME280;31849;55.992;37.252;2023-03-14T07:18:01;98176.94;;;4.06;63.85
46111;BME280;31849;55.992;37.252;2023-03-14T07:23:05;98194.97;;;4.12;63.07
46111;BME280;31849;55.992;37.252;2023-03-14T07:28:08;98183.84;;;4.24;62.83
46111;BME280;31849;55.992;37.252;2023-03-14T07:33:13;98193.34;;;4.44;62.17
46111;BME280;31849;55.992;37.252;2023-03-14T07:38:17;98193.28;;;4.16;63.30
46111;BME280;31849;55.992;37.252;2023-03-14T07:43:23;98197.63;;;4.35;61.71
46111;BME280;31849;55.992;37.252;2023-03-14T07:48:29;98195.75;;;3.86;63.52
46111;BME280;31849;55.992;37.252;2023-03-14T07:53:35;98200.09;;;4.06;62.51
46111;BME280;31849;55.992;37.252;2023-03-14T07:58:38;98205.34;;;4.51;61.03
46111;BME280;31849;55.992;37.252;2023-03-14T08:03:43;98201.03;;;4.25;61.61
46111;BME280;31849;55.992;37.252;2023-03-14T08:08:47;98213.09;;;4.55;61.15
46111;BME280;31849;55.992;37.252;2023-03-14T08:13:50;98202.81;;;4.79;60.32
46111;BME280;31849;55.992;37.252;2023-03-14T08:18:55;98207.13;;;4.84;60.15
46111;BME280;31849;55.992;37.252;2023-03-14T08:23:59;98211.41;;;4.78;60.41
46111;BME280;31849;55.992;37.252;2023-03-14T08:29:02;98212.28;;;4.83;60.07
46111;BME280;31849;55.992;37.252;2023-03-14T08:34:07;98213.97;;;4.78;59.96
46111;BME280;31849;55.992;37.252;2023-03-14T08:39:11;98214.84;;;4.92;59.97
46111;BME280;31849;55.992;37.252;2023-03-14T08:44:15;98177.94;;;4.61;59.62
46111;BME280;31849;55.992;37.252;2023-03-14T08:49:23;98202.81;;;4.92;59.37
46111;BME280;31849;55.992;37.252;2023-03-14T08:54:26;98191.66;;;4.86;59.10
46111;BME280;31849;55.992;37.252;2023-03-14T08:59:29;98203.66;;;5.22;59.06
46111;BME280;31849;55.992;37.252;2023-03-14T09:04:34;98206.22;;;5.25;58.19
46111;BME280;31849;55.992;37.252;2023-03-14T09:09:38;98189.00;;;5.43;58.08
46111;BME280;31849;55.992;37.252;2023-03-14T09:14:41;98195.94;;;5.32;57.69
46111;BME280;31849;55.992;37.252;2023-03-14T09:19:46;98204.47;;;5.60;57.80
46111;BME280;31849;55.992;37.252;2023-03-14T09:24:50;98204.47;;;5.49;56.34
46111;BME280;31849;55.992;37.252;2023-03-14T09:29:56;98210.44;;;5.68;56.61
46111;BME280;31849;55.992;37.252;2023-03-14T09:35:00;98212.13;;;5.78;56.70
46111;BME280;31849;55.992;37.252;2023-03-14T09:40:06;98209.53;;;5.85;56.22
46111;BME280;31849;55.992;37.252;2023-03-14T09:45:18;98205.13;;;6.13;56.28
46111;BME280;31849;55.992;37.252;2023-03-14T09:50:33;98199.19;;;5.89;55.25
46111;BME280;31849;55.992;37.252;2023-03-14T09:55:42;98205.31;;;5.56;56.33
46111;BME280;31849;55.992;37.252;2023-03-14T10:00:46;98223.41;;;5.25;57.52
46111;BME280;31849;55.992;37.252;2023-03-14T10:05:51;98214.84;;;4.95;57.33
46111;BME280;31849;55.992;37.252;2023-03-14T10:10:55;98213.97;;;4.81;58.74
46111;BME280;31849;55.992;37.252;2023-03-14T10:16:00;98206.25;;;4.53;59.42
46111;BME280;31849;55.992;37.252;2023-03-14T10:21:09;98203.63;;;4.40;60.85
46111;BME280;31849;55.992;37.252;2023-03-14T10:26:24;98198.47;;;4.48;61.61
46111;BME280;31849;55.992;37.252;2023-03-14T10:31:46;98189.88;;;4.29;63.93
46111;BME280;31849;55.992;37.252;2023-03-14T10:36:56;98177.03;;;4.40;62.52
46111;BME280;31849;55.992;37.252;2023-03-14T10:42:05;98166.75;;;4.43;62.93
46111;BME280;31849;55.992;37.252;2023-03-14T10:47:18;98158.19;;;4.43;62.84
46111;BME280;31849;55.992;37.252;2023-03-14T10:52:24;98153.88;;;4.58;62.52
46111;BME280;31849;55.992;37.252;2023-03-14T10:57:42;98150.47;;;4.83;61.91
46111;BME280;31849;55.992;37.252;2023-03-14T11:03:00;98158.16;;;4.69;61.18
46111;BME280;31849;55.992;37.252;2023-03-14T11:08:11;98168.44;;;5.27;60.22
46111;BME280;31849;55.992;37.252;2023-03-14T11:13:23;98156.38;;;5.43;59.73
46111;BME280;31849;55.992;37.252;2023-03-14T11:18:48;98152.88;;;5.60;57.48
46111;BME280;31849;55.992;37.252;2023-03-14T11:24:05;98163.09;;;5.97;58.08
46111;BME280;31849;55.992;37.252;2023-03-14T11:29:20;98187.22;;;5.80;57.29
46111;BME280;31849;55.992;37.252;2023-03-14T11:34:28;98159.59;;;6.01;57.41
46111;BME280;31849;55.992;37.252;2023-03-14T11:39:37;98166.28;;;6.39;56.24
46111;BME280;31849;55.992;37.252;2023-03-14T11:44:45;98181.69;;;6.50;55.73
46111;BME280;31849;55.992;37.252;2023-03-14T11:49:53;98180.84;;;6.49;56.26
46111;BME280;31849;55.992;37.252;2023-03-14T11:55:03;98194.59;;;6.50;54.52
46111;BME280;31849;55.992;37.252;2023-03-14T12:00:15;98217.94;;;6.38;55.02
46111;BME280;31849;55.992;37.252;2023-03-14T12:11:10;98188.53;;;6.59;55.06
46111;BME280;31849;55.992;37.252;2023-03-14T12:16:33;98166.31;;;6.34;54.58
46111;BME280;31849;55.992;37.252;2023-03-14T12:21:48;98221.34;;;6.40;53.10
46111;BME280;31849;55.992;37.252;2023-03-14T12:26:56;98223.09;;;6.38;55.50
46111;BME280;31849;55.992;37.252;2023-03-14T12:32:22;98217.16;;;6.17;54.58
46111;BME280;31849;55.992;37.252;2023-03-14T12:37:29;98198.28;;;5.96;55.51
46111;BME280;31849;55.992;37.252;2023-03-14T12:42:45;98178.53;;;5.91;54.48
46111;BME280;31849;55.992;37.252;2023-03-14T12:48:09;98184.56;;;5.99;54.63
46111;BME280;31849;55.992;37.252;2023-03-14T12:53:55;98193.94;;;6.19;54.88
46111;BME280;31849;55.992;37.252;2023-03-14T12:59:32;98190.56;;;6.10;55.19
46111;BME280;31849;55.992;37.252;2023-03-14T13:04:43;98174.25;;;5.94;55.12
46111;BME280;31849;55.992;37.252;2023-03-14T13:09:53;98203.56;;;5.76;54.29
46111;BME280;31849;55.992;37.252;2023-03-14T13:15:00;98197.47;;;5.97;54.84
46111;BME280;31849;55.992;37.252;2023-03-14T13:20:12;98191.47;;;5.85;55.33
46111;BME280;31849;55.992;37.252;2023-03-14T13:25:18;98188.81;;;6.11;54.76
46111;BME280;31849;55.992;37.252;2023-03-14T13:30:26;98194.91;;;5.91;53.07
46111;BME280;31849;55.992;37.252;2023-03-14T13:35:39;98194.03;;;5.85;52.22
46111;BME280;31849;55.992;37.252;2023-03-14T13:40:44;98185.44;;;5.98;54.11
46111;BME280;31849;55.992;37.252;2023-03-14T13:45:51;98197.44;;;5.96;53.76
46111;BME280;31849;55.992;37.252;2023-03-14T13:50:59;98198.31;;;5.90;53.13
46111;BME280;31849;55.992;37.252;2023-03-14T13:56:08;98177.66;;;6.01;52.94
46111;BME280;31849;55.992;37.252;2023-03-14T14:01:18;98164.84;;;5.82;52.39
46111;BME280;31849;55.992;37.252;2023-03-14T14:06:26;98194.03;;;5.98;51.83
46111;BME280;31849;55.992;37.252;2023-03-14T14:11:42;98206.91;;;6.06;51.79
46111;BME280;31849;55.992;37.252;2023-03-14T14:17:10;98198.31;;;5.95;51.13
46111;BME280;31849;55.992;37.252;2023-03-14T14:22:14;98191.38;;;6.15;52.61
46111;BME280;31849;55.992;37.252;2023-03-14T14:27:19;98205.16;;;6.07;51.78
46111;BME280;31849;55.992;37.252;2023-03-14T14:32:36;98196.59;;;6.03;51.04
46111;BME280;31849;55.992;37.252;2023-03-14T14:37:44;98185.41;;;5.96;51.91
46111;BME280;31849;55.992;37.252;2023-03-14T14:42:48;98202.66;;;5.90;52.64
46111;BME280;31849;55.992;37.252;2023-03-14T14:47:55;98186.38;;;5.69;51.82
46111;BME280;31849;55.992;37.252;2023-03-14T14:53:02;98159.78;;;5.50;51.94
46111;BME280;31849;55.992;37.252;2023-03-14T14:58:18;98181.16;;;5.80;51.75
46111;BME280;31849;55.992;37.252;2023-03-14T15:03:26;98190.63;;;5.82;51.59
46111;BME280;31849;55.992;37.252;2023-03-14T15:08:30;98194.13;;;5.68;51.91
46111;BME280;31849;55.992;37.252;2023-03-14T15:13:34;98181.25;;;5.61;51.81
46111;BME280;31849;55.992;37.252;2023-03-14T15:18:39;98182.13;;;5.53;52.03
46111;BME280;31849;55.992;37.252;2023-03-14T15:23:45;98176.97;;;5.56;51.51
46111;BME280;31849;55.992;37.252;2023-03-14T15:28:48;98188.97;;;5.63;52.14
46111;BME280;31849;55.992;37.252;2023-03-14T15:33:54;98200.22;;;5.43;51.79
46111;BME280;31849;55.992;37.252;2023-03-14T15:38:57;98192.50;;;5.26;51.89
46111;BME280;31849;55.992;37.252;2023-03-14T15:44:01;98204.50;;;5.34;52.08
46111;BME280;31849;55.992;37.252;2023-03-14T15:49:08;98213.97;;;5.32;50.80
46111;BME280;31849;55.992;37.252;2023-03-14T15:54:11;98219.97;;;5.38;51.47
46111;BME280;31849;55.992;37.252;2023-03-14T15:59:15;98228.56;;;5.31;50.75
46111;BME280;31849;55.992;37.252;2023-03-14T16:04:20;98244.88;;;5.45;50.38
46111;BME280;31849;55.992;37.252;2023-03-14T16:09:23;98262.94;;;5.42;51.21
46111;BME280;31849;55.992;37.252;2023-03-14T16:14:28;98267.22;;;5.45;50.93
46111;BME280;31849;55.992;37.252;2023-03-14T16:19:33;98283.56;;;5.41;51.01
46111;BME280;31849;55.992;37.252;2023-03-14T16:24:37;98293.88;;;5.36;50.25
46111;BME280;31849;55.992;37.252;2023-03-14T16:29:41;98288.72;;;5.36;50.52
46111;BME280;31849;55.992;37.252;2023-03-14T16:34:46;98284.41;;;5.23;50.48
46111;BME280;31849;55.992;37.252;2023-03-14T16:39:49;98298.13;;;4.99;51.43
46111;BME280;31849;55.992;37.252;2023-03-14T16:45:13;98296.38;;;4.84;51.85
46111;BME280;31849;55.992;37.252;2023-03-14T16:50:18;98304.13;;;4.85;51.53
46111;BME280;31849;55.992;37.252;2023-03-14T16:55:21;98298.13;;;4.83;52.23
46111;BME280;31849;55.992;37.252;2023-03-14T17:00:25;98296.41;;;4.90;51.68
46111;BME280;31849;55.992;37.252;2023-03-14T17:05:30;98302.41;;;4.92;50.93
46111;BME280;31849;55.992;37.252;2023-03-14T17:10:34;98311.88;;;5.07;51.44
46111;BME280;31849;55.992;37.252;2023-03-14T17:15:44;98270.66;;;4.90;50.84
46111;BME280;31849;55.992;37.252;2023-03-14T17:20:49;98304.16;;;5.04;51.11
46111;BME280;31849;55.992;37.252;2023-03-14T17:25:53;98295.53;;;4.99;50.86
46111;BME280;31849;55.992;37.252;2023-03-14T17:31:02;98305.00;;;4.84;50.42
46111;BME280;31849;55.992;37.252;2023-03-14T17:36:09;98295.53;;;4.83;50.66
46111;BME280;31849;55.992;37.252;2023-03-14T17:41:23;98290.38;;;4.85;50.53
46111;BME280;31849;55.992;37.252;2023-03-14T17:46:40;98308.47;;;5.02;50.45
46111;BME280;31849;55.992;37.252;2023-03-14T17:51:45;98321.34;;;5.08;49.87
46111;BME280;31849;55.992;37.252;2023-03-14T17:56:48;98307.56;;;4.97;50.25
46111;BME280;31849;55.992;37.252;2023-03-14T18:01:57;98297.28;;;4.95;50.59
46111;BME280;31849;55.992;37.252;2023-03-14T18:07:03;98291.22;;;4.76;50.90
46111;BME280;31849;55.992;37.252;2023-03-14T18:12:07;98298.03;;;4.60;51.58
46111;BME280;31849;55.992;37.252;2023-03-14T18:17:11;98293.78;;;4.71;50.70
46111;BME280;31849;55.992;37.252;2023-03-14T18:22:17;98287.81;;;4.72;50.61
46111;BME280;31849;55.992;37.252;2023-03-14T18:27:20;98303.25;;;4.71;50.55
46111;BME280;31849;55.992;37.252;2023-03-14T18:32:24;98292.94;;;4.75;50.78
46111;BME280;31849;55.992;37.252;2023-03-14T18:37:29;98303.25;;;4.77;50.66
46111;BME280;31849;55.992;37.252;2023-03-14T18:42:32;98264.56;;;4.55;50.33
46111;BME280;31849;55.992;37.252;2023-03-14T18:47:36;98288.66;;;4.79;50.05
46111;BME280;31849;55.992;37.252;2023-03-14T18:52:41;98309.25;;;4.81;50.64
46111;BME280;31849;55.992;37.252;2023-03-14T18:57:44;98305.84;;;4.80;49.71
46111;BME280;31849;55.992;37.252;2023-03-14T19:02:48;98318.69;;;4.72;50.18
46111;BME280;31849;55.992;37.252;2023-03-14T19:07:55;98305.84;;;4.83;49.67
46111;BME280;31849;55.992;37.252;2023-03-14T19:12:59;98307.56;;;4.97;49.45
46111;BME280;31849;55.992;37.252;2023-03-14T19:18:03;98312.72;;;4.95;49.37
46111;BME280;31849;55.992;37.252;2023-03-14T19:23:11;98334.19;;;4.97;49.45
46111;BME280;31849;55.992;37.252;2023-03-14T19:28:16;98327.34;;;5.05;48.92
46111;BME280;31849;55.992;37.252;2023-03-14T19:33:19;98340.19;;;4.88;49.04
46111;BME280;31849;55.992;37.252;2023-03-14T19:38:25;98332.50;;;5.02;48.81
46111;BME280;31849;55.992;37.252;2023-03-14T19:43:28;98354.78;;;4.86;48.13
46111;BME280;31849;55.992;37.252;2023-03-14T19:48:32;98369.38;;;4.78;48.13
46111;BME280;31849;55.992;37.252;2023-03-14T19:53:37;98339.34;;;4.92;47.75
46111;BME280;31849;55.992;37.252;2023-03-14T19:58:40;98339.31;;;4.88;48.31
46111;BME280;31849;55.992;37.252;2023-03-14T20:03:44;98340.16;;;4.79;47.85
46111;BME280;31849;55.992;37.252;2023-03-14T20:08:49;98353.91;;;4.77;48.07
46111;BME280;31849;55.992;37.252;2023-03-14T20:13:52;98343.56;;;4.69;47.72
46111;BME280;31849;55.992;37.252;2023-03-14T20:18:56;98335.81;;;4.58;47.55
46111;BME280;31849;55.992;37.252;2023-03-14T20:24:01;98337.47;;;4.45;47.70
46111;BME280;31849;55.992;37.252;2023-03-14T20:29:06;98354.63;;;4.43;47.50
46111;BME280;31849;55.992;37.252;2023-03-14T20:34:09;98346.03;;;4.39;47.99
46111;BME280;31849;55.992;37.252;2023-03-14T20:39:14;98352.84;;;4.28;47.53
46111;BME280;31849;55.992;37.252;2023-03-14T20:44:17;98344.28;;;4.26;47.34
46111;BME280;31849;55.992;37.252;2023-03-14T20:49:21;98350.28;;;4.33;47.66
46111;BME280;31849;55.992;37.252;2023-03-14T20:54:26;98379.44;;;4.33;47.24
46111;BME280;31849;55.992;37.252;2023-03-14T20:59:29;98359.78;;;4.40;47.10
46111;BME280;31849;55.992;37.252;2023-03-14T21:04:35;98361.56;;;4.58;47.14
46111;BME280;31849;55.992;37.252;2023-03-14T21:09:40;98367.56;;;4.62;46.08
46111;BME280;31849;55.992;37.252;2023-03-14T21:14:43;98371.06;;;4.74;46.05
46111;BME280;31849;55.992;37.252;2023-03-14T21:19:47;98362.47;;;4.68;46.20
46111;BME280;31849;55.992;37.252;2023-03-14T21:24:52;98364.22;;;4.78;45.45
46111;BME280;31849;55.992;37.252;2023-03-14T21:29:56;98371.06;;;4.82;45.95
46111;BME280;31849;55.992;37.252;2023-03-14T21:35:00;98363.34;;;4.84;45.65
46111;BME280;31849;55.992;37.252;2023-03-14T21:40:06;98358.25;;;4.93;45.56
46111;BME280;31849;55.992;37.252;2023-03-14T21:45:10;98355.66;;;4.90;45.23
46111;BME280;31849;55.992;37.252;2023-03-14T21:50:15;98360.75;;;4.82;44.90
46111;BME280;31849;55.992;37.252;2023-03-14T21:55:19;98358.19;;;4.85;45.17
46111;BME280;31849;55.992;37.252;2023-03-14T22:00:24;98361.66;;;4.86;45.33
46111;BME280;31849;55.992;37.252;2023-03-14T22:05:28;98361.63;;;4.78;45.76
46111;BME280;31849;55.992;37.252;2023-03-14T22:10:33;98362.50;;;4.91;45.18
46111;BME280;31849;55.992;37.252;2023-03-14T22:15:36;98353.94;;;4.92;45.07
46111;BME280;31849;55.992;37.252;2023-03-14T22:20:39;98349.63;;;4.88;44.93
46111;BME280;31849;55.992;37.252;2023-03-14T22:25:46;98343.53;;;4.63;44.88
46111;BME280;31849;55.992;37.252;2023-03-14T22:30:51;98350.44;;;4.68;45.58
46111;BME280;31849;55.992;37.252;2023-03-14T22:35:55;98354.75;;;4.79;45.52
46111;BME280;31849;55.992;37.252;2023-03-14T22:41:01;98353.91;;;4.80;45.14
46111;BME280;31849;55.992;37.252;2023-03-14T22:46:06;98360.75;;;4.76;44.95
46111;BME280;31849;55.992;37.252;2023-03-14T22:51:10;98373.59;;;4.61;44.87
46111;BME280;31849;55.992;37.252;2023-03-14T22:56:15;98371.84;;;4.58;45.30
46111;BME280;31849;55.992;37.252;2023-03-14T23:01:18;98362.47;;;4.75;44.49
46111;BME280;31849;55.992;37.252;2023-03-14T23:06:21;98365.88;;;4.70;44.85
46111;BME280;31849;55.992;37.252;2023-03-14T23:11:27;98370.19;;;4.69;45.22
46111;BME280;31849;55.992;37.252;2023-03-14T23:16:30;98374.44;;;4.61;44.73
46111;BME280;31849;55.992;37.252;2023-03-14T23:21:41;98369.22;;;4.46;44.88
46111;BME280;31849;55.992;37.252;2023-03-14T23:26:46;98377.00;;;4.55;45.41
46111;BME280;31849;55.992;37.252;2023-03-14T23:31:49;98380.41;;;4.57;45.49
46111;BME280;31849;55.992;37.252;2023-03-14T23:36:53;98381.28;;;4.54;45.08
46111;BME280;31849;55.992;37.252;2023-03-14T23:41:58;98371.78;;;4.38;45.75
46111;BME280;31849;55.992;37.252;2023-03-14T23:47:01;98369.25;;;4.49;45.13
46111;BME280;31849;55.992;37.252;2023-03-14T23:52:04;98376.88;;;4.33;45.78
46111;BME280;31849;55.992;37.252;2023-03-14T23:57:09;98383.72;;;4.27;45.59
